createdAt,value
2018-08-23T00:02:24.420Z,100036.00
2018-08-23T00:07:27.645Z,100046.00
2018-08-23T00:12:43.863Z,100045.00
2018-08-23T00:17:46.839Z,100034.00
2018-08-23T00:22:49.824Z,100050.00
2018-08-23T00:27:52.961Z,100053.00
2018-08-23T00:32:56.297Z,100046.00
2018-08-23T00:37:59.524Z,100048.00
2018-08-23T00:43:06.884Z,100040.00
2018-08-23T00:48:10.085Z,100044.00
2018-08-23T00:53:13.395Z,100046.00
2018-08-23T00:58:16.418Z,100042.00
2018-08-23T01:03:19.384Z,100040.00
2018-08-23T01:08:28.041Z,100032.00
2018-08-23T01:13:31.265Z,100028.00
2018-08-23T01:18:34.416Z,100025.00
2018-08-23T01:23:38.371Z,100021.00
2018-08-23T01:28:41.383Z,100023.00
2018-08-23T01:33:45.147Z,100020.00
2018-08-23T01:38:48.080Z,100018.00
2018-08-23T01:43:51.196Z,100020.00
2018-08-23T01:48:54.200Z,100023.00
2018-08-23T01:53:57.342Z,100018.00
2018-08-23T01:59:00.299Z,100023.00
2018-08-23T02:04:05.364Z,100013.00
2018-08-23T02:09:08.608Z,100004.00
2018-08-23T02:14:11.812Z,99996.00
2018-08-23T02:19:14.764Z,99988.00
2018-08-23T02:24:22.436Z,99995.00
2018-08-23T02:29:40.409Z,99997.00
2018-08-23T02:34:45.696Z,100003.00
2018-08-23T02:39:48.839Z,100002.00
2018-08-23T02:44:51.908Z,99999.00
2018-08-23T02:49:55.003Z,99995.00
2018-08-23T02:54:58.211Z,99986.00
2018-08-23T03:00:01.153Z,99986.00
2018-08-23T03:05:04.196Z,99989.00
2018-08-23T03:10:07.196Z,99992.00
2018-08-23T03:15:10.220Z,99989.00
2018-08-23T03:20:15.335Z,99983.00
2018-08-23T03:25:19.870Z,99982.00
2018-08-23T03:30:23.799Z,99984.00
2018-08-23T03:35:27.108Z,99996.00
2018-08-23T03:40:30.313Z,99999.00
2018-08-23T03:45:33.343Z,99992.00
2018-08-23T03:50:41.046Z,99989.00
2018-08-23T03:55:49.473Z,99985.00
2018-08-23T04:01:01.129Z,99994.00
2018-08-23T04:06:34.808Z,99986.00
2018-08-23T04:11:37.819Z,99989.00
2018-08-23T04:16:40.812Z,99980.00
2018-08-23T04:21:43.763Z,99994.00
2018-08-23T04:26:46.920Z,99997.00
2018-08-23T04:31:49.911Z,99992.00
2018-08-23T04:36:53.029Z,99992.00
2018-08-23T04:42:00.761Z,99994.00
2018-08-23T04:47:04.880Z,99996.00
2018-08-23T04:52:08.084Z,100001.00
2018-08-23T04:57:11.057Z,100001.00
2018-08-23T05:02:14.405Z,100001.00
2018-08-23T05:07:17.435Z,100005.00
2018-08-23T05:12:20.455Z,100007.00
2018-08-23T05:17:23.824Z,100018.00
2018-08-23T05:22:26.988Z,100027.00
2018-08-23T05:27:29.975Z,100031.00
2018-08-23T05:32:32.952Z,100036.00
2018-08-23T05:37:36.522Z,100052.00
2018-08-23T05:42:53.115Z,100058.00
2018-08-23T05:47:56.085Z,100047.00
2018-08-23T05:52:59.390Z,100070.00
2018-08-23T05:58:17.089Z,100064.00
2018-08-23T06:03:20.256Z,100069.00
2018-08-23T06:08:23.545Z,100064.00
2018-08-23T06:13:26.574Z,100067.00
2018-08-23T06:18:29.733Z,100088.00
2018-08-23T06:24:08.210Z,100067.00
2018-08-23T06:29:24.173Z,100066.00
2018-08-23T06:34:29.069Z,100058.00
2018-08-23T06:39:32.273Z,100063.00
2018-08-23T06:44:56.377Z,100055.00
2018-08-23T06:49:59.580Z,100046.00
2018-08-23T06:55:03.362Z,100036.00
2018-08-23T07:00:06.618Z,100042.00
2018-08-23T07:05:10.370Z,100061.00
2018-08-23T07:10:14.060Z,100064.00
2018-08-23T07:15:17.264Z,100059.00
2018-08-23T07:20:20.519Z,100062.00
2018-08-23T07:25:23.709Z,100063.00
2018-08-23T07:30:26.869Z,100068.00
2018-08-23T07:35:29.826Z,100080.00
2018-08-23T07:40:32.893Z,100078.00
2018-08-23T07:45:35.840Z,100081.00
2018-08-23T07:50:38.999Z,100098.00
2018-08-23T07:55:41.965Z,100091.00
2018-08-23T08:00:45.078Z,100094.00
2018-08-23T08:05:48.231Z,100096.00
2018-08-23T08:10:51.473Z,100096.00
2018-08-23T08:15:54.500Z,100106.00
2018-08-23T08:21:00.927Z,100102.00
2018-08-23T08:26:03.974Z,100099.00
2018-08-23T08:31:07.136Z,100091.00
2018-08-23T08:36:10.454Z,100088.00
2018-08-23T08:41:13.460Z,100062.00
2018-08-23T08:46:16.424Z,100069.00
2018-08-23T08:51:25.051Z,100063.00
2018-08-23T08:56:34.425Z,100069.00
2018-08-23T09:01:37.691Z,100057.00
2018-08-23T09:06:43.965Z,100065.00
2018-08-23T09:11:47.140Z,100053.00
2018-08-23T09:16:50.373Z,100042.00
2018-08-23T09:22:00.114Z,100026.00
2018-08-23T09:27:03.365Z,100027.00
2018-08-23T09:32:12.771Z,100030.00
2018-08-23T09:37:16.002Z,100032.00
2018-08-23T09:42:19.102Z,100042.00
2018-08-23T09:47:22.415Z,100038.00
2018-08-23T09:52:31.958Z,100029.00
2018-08-23T09:57:36.620Z,100026.00
2018-08-23T10:02:45.363Z,100011.00
2018-08-23T10:07:54.100Z,100012.00
2018-08-23T10:13:02.939Z,100007.00
2018-08-23T10:18:11.885Z,99998.00
2018-08-23T10:23:21.093Z,99996.00
2018-08-23T10:28:25.463Z,99995.00
2018-08-23T10:33:28.409Z,99992.00
2018-08-23T10:38:31.459Z,99984.00
2018-08-23T10:43:39.985Z,99979.00
2018-08-23T10:48:43.132Z,99984.00
2018-08-23T10:53:46.315Z,99988.00
2018-08-23T10:58:49.619Z,99991.00
2018-08-23T11:03:52.923Z,99982.00
2018-08-23T11:09:01.785Z,99973.00
2018-08-23T11:14:11.035Z,99974.00
2018-08-23T11:19:19.958Z,99964.00
2018-08-23T11:24:23.079Z,99960.00
2018-08-23T11:29:26.050Z,99951.00
2018-08-23T11:34:29.183Z,99952.00
2018-08-23T11:39:32.630Z,99956.00
2018-08-23T11:44:35.908Z,99945.00
2018-08-23T11:49:39.134Z,99943.00
2018-08-23T11:54:42.531Z,99940.00
2018-08-23T11:59:45.593Z,99922.00
2018-08-23T12:04:48.844Z,99927.00
2018-08-23T12:09:52.156Z,99932.00
2018-08-23T12:14:55.294Z,99931.00
2018-08-23T12:19:58.486Z,99925.00
2018-08-23T12:25:01.599Z,99912.00
2018-08-23T12:30:06.123Z,99918.00
2018-08-23T12:35:09.347Z,99906.00
2018-08-23T12:40:18.047Z,99890.00
2018-08-23T12:45:21.356Z,99894.00
2018-08-23T12:50:24.465Z,99889.00
2018-08-23T12:55:27.477Z,99887.00
2018-08-23T13:00:30.717Z,99879.00
2018-08-23T13:05:34.132Z,99871.00
2018-08-23T13:10:37.652Z,99874.00
2018-08-23T13:15:40.891Z,99866.00
2018-08-23T13:20:44.072Z,99865.00
2018-08-23T13:25:52.755Z,99857.00
2018-08-23T13:30:56.209Z,99859.00
2018-08-23T13:35:59.496Z,99851.00
2018-08-23T13:41:02.490Z,99840.00
2018-08-23T13:46:05.640Z,99846.00
2018-08-23T13:51:09.035Z,99830.00
2018-08-23T13:56:12.096Z,99821.00
2018-08-23T14:01:18.996Z,99833.00
2018-08-23T14:06:24.971Z,99819.00
2018-08-23T14:11:28.056Z,99819.00
2018-08-23T14:16:31.259Z,99810.00
2018-08-23T14:21:34.404Z,99811.00
2018-08-23T14:26:37.503Z,99806.00
2018-08-23T14:31:40.592Z,99796.00
2018-08-23T14:36:43.690Z,99796.00
2018-08-23T14:41:46.875Z,99794.00
2018-08-23T14:46:55.460Z,99781.00
2018-08-23T14:51:58.732Z,99779.00
2018-08-23T14:57:07.541Z,99772.00
2018-08-23T15:02:10.847Z,99750.00
2018-08-23T15:07:14.515Z,99754.00
2018-08-23T15:12:17.928Z,99748.00
2018-08-23T15:17:21.087Z,99749.00
2018-08-23T15:22:24.391Z,99737.00
2018-08-23T15:27:31.879Z,99741.00
2018-08-23T15:32:34.909Z,99731.00
2018-08-23T15:37:37.967Z,99720.00
2018-08-23T15:42:40.970Z,99717.00
2018-08-23T15:47:43.918Z,99716.00
2018-08-23T15:52:46.929Z,99718.00
2018-08-23T15:57:50.890Z,99714.00
2018-08-23T16:02:54.054Z,99712.00
2018-08-23T16:07:57.075Z,99715.00
2018-08-23T16:13:00.096Z,99712.00
2018-08-23T16:18:08.949Z,99704.00
2018-08-23T16:23:12.340Z,99700.00
2018-08-23T16:28:15.647Z,99696.00
2018-08-23T16:33:18.868Z,99702.00
2018-08-23T16:38:21.933Z,99688.00
2018-08-23T16:43:25.218Z,99689.00
2018-08-23T16:48:28.399Z,99679.00
2018-08-23T16:53:31.425Z,99685.00
2018-08-23T16:58:34.654Z,99676.00
2018-08-23T17:03:37.824Z,99670.00
2018-08-23T17:08:41.254Z,99665.00
2018-08-23T17:13:44.476Z,99648.00
2018-08-23T17:18:48.727Z,99648.00
2018-08-23T17:23:52.113Z,99657.00
2018-08-23T17:28:55.183Z,99658.00
2018-08-23T17:33:58.417Z,99656.00
2018-08-23T17:39:01.732Z,99650.00
2018-08-23T17:44:04.870Z,99649.00
2018-08-23T17:49:07.969Z,99647.00
2018-08-23T17:54:11.279Z,99649.00
2018-08-23T17:59:14.661Z,99641.00
2018-08-23T18:04:17.735Z,99657.00
2018-08-23T18:09:20.975Z,99657.00
2018-08-23T18:14:24.034Z,99658.00
2018-08-23T18:19:27.914Z,99657.00
2018-08-23T18:24:31.170Z,99661.00
2018-08-23T18:29:34.327Z,99658.00
2018-08-23T18:34:37.536Z,99692.00
2018-08-23T18:39:41.269Z,99682.00
2018-08-23T18:44:48.590Z,99683.00
2018-08-23T18:49:51.636Z,99687.00
2018-08-23T18:54:55.005Z,99694.00
2018-08-23T18:59:58.319Z,99677.00
2018-08-23T19:05:01.424Z,99695.00
2018-08-23T19:10:04.788Z,99697.00
2018-08-23T19:15:08.197Z,99703.00
2018-08-23T19:20:12.735Z,99698.00
2018-08-23T19:25:15.873Z,99716.00
2018-08-23T19:30:18.830Z,99721.00
2018-08-23T19:35:21.862Z,99720.00
2018-08-23T19:40:29.042Z,99715.00
2018-08-23T19:45:37.881Z,99727.00
2018-08-23T19:50:41.032Z,99726.00
2018-08-23T19:55:44.049Z,99731.00
2018-08-23T20:00:48.619Z,99734.00
2018-08-23T20:05:51.629Z,99740.00
2018-08-23T20:10:54.785Z,99743.00
2018-08-23T20:15:58.291Z,99736.00
2018-08-23T20:21:01.447Z,99745.00
2018-08-23T20:26:04.514Z,99755.00
2018-08-23T20:31:07.936Z,99754.00
2018-08-23T20:36:10.974Z,99773.00
2018-08-23T20:41:14.041Z,99794.00
2018-08-23T20:46:17.082Z,99779.00
2018-08-23T20:51:20.171Z,99789.00
2018-08-23T20:56:23.261Z,99800.00
2018-08-23T21:01:26.852Z,99808.00
2018-08-23T21:06:30.043Z,99811.00
2018-08-23T21:11:33.181Z,99813.00
2018-08-23T21:16:36.303Z,99801.00
2018-08-23T21:21:39.611Z,99790.00
2018-08-23T21:26:42.608Z,99801.00
2018-08-23T21:31:45.617Z,99797.00
2018-08-23T21:36:48.613Z,99805.00
2018-08-23T21:41:51.673Z,99799.00
2018-08-23T21:46:55.688Z,99801.00
2018-08-23T21:51:58.676Z,99785.00
2018-08-23T21:57:01.867Z,99775.00
2018-08-23T22:02:10.814Z,99770.00
2018-08-23T22:07:13.852Z,99761.00
2018-08-23T22:12:18.708Z,99766.00
2018-08-23T22:17:22.214Z,99766.00
2018-08-23T22:22:25.227Z,99770.00
2018-08-23T22:27:28.361Z,99766.00
2018-08-23T22:32:31.387Z,99769.00
2018-08-23T22:37:34.621Z,99766.00
2018-08-23T22:42:37.708Z,99759.00
2018-08-23T22:47:40.840Z,99751.00
2018-08-23T22:52:43.842Z,99748.00
2018-08-23T22:57:47.037Z,99752.00
2018-08-23T23:02:50.135Z,99744.00
2018-08-23T23:07:53.091Z,99742.00
2018-08-23T23:12:56.064Z,99729.00
2018-08-23T23:17:59.248Z,99728.00
2018-08-23T23:23:02.863Z,99726.00
2018-08-23T23:28:06.082Z,99734.00
2018-08-23T23:33:09.036Z,99734.00
2018-08-23T23:38:12.284Z,99739.00
2018-08-23T23:43:15.271Z,99737.00
2018-08-23T23:48:18.367Z,99734.00
2018-08-23T23:53:21.605Z,99728.00
2018-08-23T23:58:24.775Z,99718.00
